createdAt,value
2018-11-26T00:00:02.051Z,45.57
2018-11-26T00:01:02.157Z,45.56
2018-11-26T00:02:02.061Z,45.55
2018-11-26T00:03:02.042Z,45.55
2018-11-26T00:04:02.181Z,45.55
2018-11-26T00:05:02.773Z,45.58
2018-11-26T00:06:01.936Z,45.55
2018-11-26T00:07:01.904Z,45.6
2018-11-26T00:08:01.966Z,45.59
2018-11-26T00:09:01.840Z,45.59
2018-11-26T00:10:01.919Z,45.63
2018-11-26T00:11:01.823Z,45.61
2018-11-26T00:12:01.932Z,45.56
2018-11-26T00:13:02.017Z,45.6
2018-11-26T00:14:01.917Z,45.59
2018-11-26T00:15:01.989Z,45.59
2018-11-26T00:16:01.816Z,45.6
2018-11-26T00:17:01.897Z,45.58
2018-11-26T00:18:01.756Z,45.59
2018-11-26T00:19:02.015Z,45.59
2018-11-26T00:20:02.126Z,45.61
2018-11-26T00:21:01.810Z,45.63
2018-11-26T00:22:02.053Z,45.63
2018-11-26T00:23:01.906Z,45.64
2018-11-26T00:24:01.952Z,45.64
2018-11-26T00:25:02.062Z,45.64
2018-11-26T00:26:02.003Z,45.63
2018-11-26T00:27:02.039Z,45.63
2018-11-26T00:28:02.311Z,45.66
2018-11-26T00:29:02.942Z,45.67
2018-11-26T00:30:02.399Z,45.66
2018-11-26T00:31:02.081Z,45.65
2018-11-26T00:32:01.941Z,45.66
2018-11-26T00:33:02.195Z,45.66
2018-11-26T00:34:01.914Z,45.69
2018-11-26T00:35:01.949Z,45.65
2018-11-26T00:36:02.069Z,45.68
2018-11-26T00:37:01.957Z,45.75
2018-11-26T00:38:02.108Z,45.7
2018-11-26T00:39:01.812Z,45.69
2018-11-26T00:40:02.542Z,45.67
2018-11-26T00:41:01.793Z,45.71
2018-11-26T00:42:01.975Z,45.68
2018-11-26T00:43:02.060Z,45.63
2018-11-26T00:44:02.304Z,45.72
2018-11-26T00:45:02.125Z,45.73
2018-11-26T00:46:02.048Z,45.72
2018-11-26T00:47:02.006Z,45.69
2018-11-26T00:48:01.918Z,45.72
2018-11-26T00:49:01.960Z,45.67
2018-11-26T00:50:02.239Z,45.66
2018-11-26T00:51:02.054Z,45.75
2018-11-26T00:52:02.613Z,45.7
2018-11-26T00:53:02.868Z,45.68
2018-11-26T00:54:02.061Z,45.71
2018-11-26T00:55:01.997Z,45.71
2018-11-26T00:56:02.067Z,45.69
2018-11-26T00:57:01.964Z,45.66
2018-11-26T00:58:02.240Z,45.68
2018-11-26T00:59:02.064Z,45.73
2018-11-26T01:00:02.181Z,45.71
2018-11-26T01:01:02.752Z,45.73
2018-11-26T01:02:02.410Z,45.73
2018-11-26T01:03:02.058Z,45.73
2018-11-26T01:04:01.962Z,45.71
2018-11-26T01:05:01.761Z,45.71
2018-11-26T01:06:01.945Z,45.72
2018-11-26T01:07:02.013Z,45.76
2018-11-26T01:08:02.154Z,45.75
2018-11-26T01:09:02.235Z,45.72
2018-11-26T01:10:02.136Z,45.75
2018-11-26T01:11:02.087Z,45.71
2018-11-26T01:12:01.796Z,45.76
2018-11-26T01:13:02.187Z,45.76
2018-11-26T01:14:01.799Z,45.78
2018-11-26T01:15:02.491Z,45.71
2018-11-26T01:16:01.765Z,45.77
2018-11-26T01:17:02.207Z,45.72
2018-11-26T01:18:02.228Z,45.76
2018-11-26T01:19:02.752Z,45.73
2018-11-26T01:20:02.034Z,45.76
2018-11-26T01:21:01.908Z,45.72
2018-11-26T01:22:02.253Z,45.74
2018-11-26T01:23:02.147Z,45.76
2018-11-26T01:24:01.985Z,45.74
2018-11-26T01:25:02.134Z,45.76
2018-11-26T01:26:02.611Z,45.74
2018-11-26T01:27:02.050Z,45.77
2018-11-26T01:28:01.938Z,45.7
2018-11-26T01:29:01.983Z,45.76
2018-11-26T01:30:02.108Z,45.77
2018-11-26T01:31:02.002Z,45.76
2018-11-26T01:32:01.811Z,45.78
2018-11-26T01:33:01.973Z,45.74
2018-11-26T01:34:02.300Z,45.74
2018-11-26T01:35:02.144Z,45.74
2018-11-26T01:36:02.240Z,45.78
2018-11-26T01:37:01.984Z,45.75
2018-11-26T01:38:02.040Z,45.79
2018-11-26T01:39:01.786Z,45.79
2018-11-26T01:40:01.869Z,45.77
2018-11-26T01:41:01.711Z,45.8
2018-11-26T01:42:01.870Z,45.76
2018-11-26T01:43:01.884Z,45.76
2018-11-26T01:44:01.823Z,45.78
2018-11-26T01:45:02.002Z,45.75
2018-11-26T01:46:01.772Z,45.77
2018-11-26T01:47:02.109Z,45.83
2018-11-26T01:48:01.820Z,45.8
2018-11-26T01:49:02.345Z,45.75
2018-11-26T01:50:01.966Z,45.77
2018-11-26T01:51:01.769Z,45.76
2018-11-26T01:52:01.819Z,45.71
2018-11-26T01:53:01.789Z,45.73
2018-11-26T01:54:02.273Z,45.72
2018-11-26T01:55:01.714Z,45.77
2018-11-26T01:56:02.367Z,45.82
2018-11-26T01:57:01.902Z,45.76
2018-11-26T01:58:01.790Z,45.8
2018-11-26T01:59:01.966Z,45.8
2018-11-26T02:00:01.805Z,45.74
2018-11-26T02:01:01.790Z,45.74
2018-11-26T02:02:01.891Z,45.82
2018-11-26T02:03:01.889Z,45.84
2018-11-26T02:04:02.107Z,45.82
2018-11-26T02:05:02.053Z,45.8
2018-11-26T02:06:01.951Z,45.81
2018-11-26T02:07:02.135Z,45.83
2018-11-26T02:08:02.264Z,45.77
2018-11-26T02:09:02.140Z,45.85
2018-11-26T02:10:01.688Z,45.73
2018-11-26T02:11:02.391Z,45.8
2018-11-26T02:12:02.392Z,45.75
2018-11-26T02:13:02.437Z,45.75
2018-11-26T02:14:02.009Z,45.79
2018-11-26T02:15:01.936Z,45.77
2018-11-26T02:16:01.726Z,45.77
2018-11-26T02:17:02.250Z,45.76
2018-11-26T02:18:02.003Z,45.77
2018-11-26T02:19:01.742Z,45.79
2018-11-26T02:20:01.993Z,45.8
2018-11-26T02:21:02.162Z,45.79
2018-11-26T02:22:02.370Z,45.75
2018-11-26T02:23:01.759Z,45.82
2018-11-26T02:24:02.196Z,45.79
2018-11-26T02:25:01.815Z,45.79
2018-11-26T02:26:01.949Z,45.79
2018-11-26T02:27:02.046Z,45.75
2018-11-26T02:28:01.923Z,45.86
2018-11-26T02:29:02.009Z,45.84
2018-11-26T02:30:02.110Z,45.78
2018-11-26T02:31:02.768Z,45.72
2018-11-26T02:32:01.751Z,45.8
2018-11-26T02:33:01.856Z,45.72
2018-11-26T02:34:01.965Z,45.74
2018-11-26T02:35:01.946Z,45.77
2018-11-26T02:36:02.155Z,45.77
2018-11-26T02:37:02.167Z,45.81
2018-11-26T02:38:01.897Z,45.8
2018-11-26T02:39:02.150Z,45.8
2018-11-26T02:40:02.149Z,45.83
2018-11-26T02:41:02.276Z,45.8
2018-11-26T02:42:02.306Z,45.81
2018-11-26T02:43:02.435Z,45.89
2018-11-26T02:44:01.840Z,45.82
2018-11-26T02:45:01.889Z,45.79
2018-11-26T02:46:02.590Z,45.76
2018-11-26T02:47:02.301Z,45.81
2018-11-26T02:48:02.086Z,45.82
2018-11-26T02:49:02.138Z,45.82
2018-11-26T02:50:01.961Z,45.79
2018-11-26T02:51:02.250Z,45.75
2018-11-26T02:52:02.331Z,45.77
2018-11-26T02:53:02.196Z,45.76
2018-11-26T02:54:01.895Z,45.76
2018-11-26T02:55:01.961Z,45.78
2018-11-26T02:56:01.877Z,45.71
2018-11-26T02:57:01.782Z,45.86
2018-11-26T02:58:02.309Z,45.82
2018-11-26T02:59:02.009Z,45.81
2018-11-26T03:00:01.815Z,45.77
2018-11-26T03:01:01.867Z,45.77
2018-11-26T03:02:02.059Z,45.8
2018-11-26T03:03:01.920Z,45.82
2018-11-26T03:04:02.074Z,45.86
2018-11-26T03:05:01.951Z,45.83
2018-11-26T03:06:02.162Z,45.75
2018-11-26T03:07:01.934Z,45.83
2018-11-26T03:08:02.185Z,45.84
2018-11-26T03:09:01.761Z,45.81
2018-11-26T03:10:02.326Z,45.87
2018-11-26T03:11:01.783Z,45.86
2018-11-26T03:12:01.880Z,45.78
2018-11-26T03:13:02.038Z,45.77
2018-11-26T03:14:01.884Z,45.75
2018-11-26T03:15:02.005Z,45.78
2018-11-26T03:16:01.755Z,45.77
2018-11-26T03:17:01.989Z,45.75
2018-11-26T03:18:01.826Z,45.76
2018-11-26T03:19:01.974Z,45.8
2018-11-26T03:20:01.762Z,45.82
2018-11-26T03:21:01.987Z,45.78
2018-11-26T03:22:01.730Z,45.77
2018-11-26T03:23:01.792Z,45.83
2018-11-26T03:24:02.053Z,45.77
2018-11-26T03:25:01.769Z,45.81
2018-11-26T03:26:01.932Z,45.83
2018-11-26T03:27:01.804Z,45.82
2018-11-26T03:28:01.844Z,45.8
2018-11-26T03:29:01.830Z,45.82
2018-11-26T03:30:01.803Z,45.81
2018-11-26T03:31:01.634Z,45.84
2018-11-26T03:32:01.933Z,45.74
2018-11-26T03:33:01.864Z,45.74
2018-11-26T03:34:01.707Z,45.76
2018-11-26T03:35:01.948Z,45.83
2018-11-26T03:36:02.081Z,45.77
2018-11-26T03:37:02.119Z,45.78
2018-11-26T03:38:02.181Z,45.78
2018-11-26T03:39:01.796Z,45.83
2018-11-26T03:40:02.302Z,45.81
2018-11-26T03:41:01.695Z,45.82
2018-11-26T03:42:01.708Z,45.82
2018-11-26T03:43:01.801Z,45.8
2018-11-26T03:44:01.942Z,45.81
2018-11-26T03:45:01.975Z,45.8
2018-11-26T03:46:01.851Z,45.78
2018-11-26T03:47:02.254Z,45.8
2018-11-26T03:48:01.952Z,45.84
2018-11-26T03:49:02.055Z,45.81
2018-11-26T03:50:01.865Z,45.81
2018-11-26T03:51:01.860Z,45.76
2018-11-26T03:52:02.009Z,45.89
2018-11-26T03:53:01.744Z,45.8
2018-11-26T03:54:01.956Z,45.85
2018-11-26T03:55:02.312Z,45.83
2018-11-26T03:56:02.107Z,45.76
2018-11-26T03:57:01.765Z,45.74
2018-11-26T03:58:01.805Z,45.78
2018-11-26T03:59:01.920Z,45.92
2018-11-26T04:00:01.810Z,45.85
2018-11-26T04:01:01.958Z,45.75
2018-11-26T04:02:01.731Z,45.77
2018-11-26T04:03:02.008Z,45.78
2018-11-26T04:04:02.082Z,45.84
2018-11-26T04:05:01.966Z,45.83
2018-11-26T04:06:01.799Z,45.86
2018-11-26T04:07:02.101Z,45.77
2018-11-26T04:08:01.766Z,45.78
2018-11-26T04:09:01.948Z,45.8
2018-11-26T04:10:02.003Z,45.79
2018-11-26T04:11:01.801Z,45.77
2018-11-26T04:12:01.863Z,45.82
2018-11-26T04:13:02.072Z,45.82
2018-11-26T04:14:02.222Z,45.79
2018-11-26T04:15:01.803Z,45.82
2018-11-26T04:16:02.149Z,45.73
2018-11-26T04:17:01.971Z,45.71
2018-11-26T04:18:01.803Z,45.78
2018-11-26T04:19:02.378Z,45.82
2018-11-26T04:20:01.764Z,45.85
2018-11-26T04:21:01.980Z,45.77
2018-11-26T04:22:01.965Z,45.74
2018-11-26T04:23:02.100Z,45.77
2018-11-26T04:24:02.223Z,45.74
2018-11-26T04:25:01.874Z,45.79
2018-11-26T04:26:02.234Z,45.85
2018-11-26T04:27:02.052Z,45.74
2018-11-26T04:28:01.955Z,45.7
2018-11-26T04:29:01.765Z,45.75
2018-11-26T04:30:02.757Z,45.79
2018-11-26T04:31:01.846Z,45.75
2018-11-26T04:32:02.291Z,45.79
2018-11-26T04:33:02.268Z,45.76
2018-11-26T04:34:01.795Z,45.84
2018-11-26T04:35:01.876Z,45.8
2018-11-26T04:36:01.767Z,45.83
2018-11-26T04:37:02.127Z,45.78
2018-11-26T04:38:01.793Z,45.78
2018-11-26T04:39:02.052Z,45.77
2018-11-26T04:40:01.656Z,45.81
2018-11-26T04:41:01.800Z,45.79
2018-11-26T04:42:02.174Z,45.82
2018-11-26T04:43:02.045Z,45.8
2018-11-26T04:44:01.954Z,45.74
2018-11-26T04:45:01.715Z,45.83
2018-11-26T04:46:01.917Z,45.76
2018-11-26T04:47:02.052Z,45.79
2018-11-26T04:48:01.784Z,45.84
2018-11-26T04:49:01.564Z,45.83
2018-11-26T04:50:01.848Z,45.77
2018-11-26T04:51:01.987Z,45.74
2018-11-26T04:52:01.738Z,45.73
2018-11-26T04:53:01.800Z,45.68
2018-11-26T04:54:01.751Z,45.68
2018-11-26T04:55:01.856Z,45.78
2018-11-26T04:56:02.364Z,45.69
2018-11-26T04:57:01.783Z,45.74
2018-11-26T04:58:01.984Z,45.75
2018-11-26T04:59:01.771Z,45.81
2018-11-26T05:00:01.832Z,45.89
2018-11-26T05:01:01.680Z,45.9
2018-11-26T05:02:01.766Z,45.88
2018-11-26T05:03:02.047Z,45.87
2018-11-26T05:04:01.751Z,45.95
2018-11-26T05:05:01.853Z,45.89
2018-11-26T05:06:01.631Z,45.91
2018-11-26T05:07:02.100Z,45.93
2018-11-26T05:08:01.731Z,45.94
2018-11-26T05:09:01.675Z,45.87
2018-11-26T05:10:01.909Z,45.87
2018-11-26T05:11:03.053Z,45.85
2018-11-26T05:12:02.122Z,45.94
2018-11-26T05:13:02.032Z,45.83
2018-11-26T05:14:02.167Z,45.91
2018-11-26T05:15:01.667Z,45.81
2018-11-26T05:16:01.750Z,45.72
2018-11-26T05:17:02.163Z,45.81
2018-11-26T05:18:02.298Z,45.81
2018-11-26T05:19:01.860Z,45.75
2018-11-26T05:20:02.191Z,45.77
2018-11-26T05:21:02.400Z,45.81
2018-11-26T05:22:01.702Z,45.74
2018-11-26T05:23:01.947Z,45.8
2018-11-26T05:24:01.860Z,45.76
2018-11-26T05:25:02.626Z,45.71
2018-11-26T05:26:02.139Z,45.74
2018-11-26T05:27:02.160Z,45.71
2018-11-26T05:28:02.059Z,45.74
2018-11-26T05:29:02.552Z,45.58
2018-11-26T05:30:02.171Z,45.72
2018-11-26T05:31:01.723Z,45.75
2018-11-26T05:32:01.933Z,45.81
2018-11-26T05:33:02.818Z,45.83
2018-11-26T05:34:01.855Z,45.79
2018-11-26T05:35:02.104Z,45.79
2018-11-26T05:36:01.791Z,45.76
2018-11-26T05:37:01.890Z,45.78
2018-11-26T05:38:01.652Z,45.76
2018-11-26T05:39:02.662Z,45.77
2018-11-26T05:40:01.653Z,45.79
2018-11-26T05:41:01.942Z,45.76
2018-11-26T05:42:02.175Z,45.78
2018-11-26T05:43:02.033Z,45.8
2018-11-26T05:44:02.111Z,45.72
2018-11-26T05:45:01.803Z,45.77
2018-11-26T05:46:01.914Z,45.78
2018-11-26T05:47:02.572Z,45.79
2018-11-26T05:48:01.768Z,45.77
2018-11-26T05:49:01.633Z,45.79
2018-11-26T05:50:01.847Z,45.79
2018-11-26T05:51:01.965Z,45.8
2018-11-26T05:52:01.839Z,45.77
2018-11-26T05:53:01.932Z,45.83
2018-11-26T05:54:01.732Z,45.78
2018-11-26T05:55:02.110Z,45.76
2018-11-26T05:56:01.715Z,45.8
2018-11-26T05:57:02.141Z,45.73
2018-11-26T05:58:01.956Z,45.73
2018-11-26T05:59:01.718Z,45.73
2018-11-26T06:00:02.012Z,45.77
2018-11-26T06:01:01.647Z,45.62
2018-11-26T06:02:02.117Z,45.7
2018-11-26T06:03:02.201Z,45.74
2018-11-26T06:04:02.067Z,45.69
2018-11-26T06:05:02.058Z,45.74
2018-11-26T06:06:01.873Z,45.62
2018-11-26T06:07:02.064Z,45.66
2018-11-26T06:08:01.778Z,45.74
2018-11-26T06:09:01.795Z,45.7
2018-11-26T06:10:01.680Z,45.7
2018-11-26T06:11:02.144Z,45.73
2018-11-26T06:12:01.851Z,45.7
2018-11-26T06:13:03.191Z,45.72
2018-11-26T06:14:02.060Z,45.69
2018-11-26T06:15:01.755Z,45.61
2018-11-26T06:16:01.638Z,45.66
2018-11-26T06:17:02.107Z,45.67
2018-11-26T06:18:02.088Z,45.63
2018-11-26T06:19:02.135Z,45.64
2018-11-26T06:20:02.015Z,45.68
2018-11-26T06:21:01.970Z,45.7
2018-11-26T06:22:01.780Z,45.71
2018-11-26T06:23:01.807Z,45.64
2018-11-26T06:24:01.692Z,45.51
2018-11-26T06:25:01.784Z,45.28
2018-11-26T06:26:02.360Z,44.95
2018-11-26T06:27:02.478Z,44.74
2018-11-26T06:28:02.261Z,44.9
2018-11-26T06:29:02.074Z,44.92
2018-11-26T06:30:01.848Z,44.93
2018-11-26T06:31:01.788Z,45.04
2018-11-26T06:32:01.834Z,45.04
2018-11-26T06:33:01.748Z,45.14
2018-11-26T06:34:01.557Z,45.09
2018-11-26T06:35:01.694Z,45.27
2018-11-26T06:36:01.765Z,45.14
2018-11-26T06:37:01.860Z,45.24
2018-11-26T06:38:02.136Z,45.25
2018-11-26T06:39:01.802Z,45.22
2018-11-26T06:40:01.679Z,45.38
2018-11-26T06:41:01.754Z,45.27
2018-11-26T06:42:01.672Z,45.28
2018-11-26T06:43:02.052Z,45.42
2018-11-26T06:44:02.295Z,45.41
2018-11-26T06:45:01.841Z,45.38
2018-11-26T06:46:01.837Z,45.42
2018-11-26T06:47:01.824Z,45.37
2018-11-26T06:48:01.749Z,45.37
2018-11-26T06:49:02.027Z,45.38
2018-11-26T06:50:02.141Z,45.29
2018-11-26T06:51:01.710Z,45.41
2018-11-26T06:52:01.828Z,45.4
2018-11-26T06:53:02.407Z,45.36
2018-11-26T06:54:01.856Z,45.36
2018-11-26T06:55:01.892Z,45.43
2018-11-26T06:56:01.764Z,45.5
2018-11-26T06:57:01.836Z,45.5
2018-11-26T06:58:01.664Z,45.46
2018-11-26T06:59:02.099Z,45.42
2018-11-26T07:00:01.932Z,45.43
2018-11-26T07:01:01.948Z,45.41
2018-11-26T07:02:01.795Z,45.5
2018-11-26T07:03:02.591Z,45.41
2018-11-26T07:04:02.464Z,45.39
2018-11-26T07:05:01.830Z,45.47
2018-11-26T07:06:02.081Z,45.36
2018-11-26T07:07:01.647Z,45.32
2018-11-26T07:08:01.639Z,45.41
2018-11-26T07:09:02.291Z,45.46
2018-11-26T07:10:01.973Z,45.39
2018-11-26T07:11:02.337Z,45.32
2018-11-26T07:12:01.708Z,45.49
2018-11-26T07:13:01.934Z,45.45
2018-11-26T07:14:01.896Z,45.47
2018-11-26T07:15:02.216Z,45.45
2018-11-26T07:16:01.698Z,45.41
2018-11-26T07:17:02.030Z,45.43
2018-11-26T07:18:01.861Z,45.47
2018-11-26T07:19:01.677Z,45.4
2018-11-26T07:20:02.255Z,45.47
2018-11-26T07:21:01.974Z,45.4
2018-11-26T07:22:02.068Z,45.38
2018-11-26T07:23:01.586Z,45.43
2018-11-26T07:24:02.013Z,45.38
2018-11-26T07:25:02.723Z,45.37
2018-11-26T07:26:01.671Z,45.43
2018-11-26T07:27:02.083Z,45.33
2018-11-26T07:28:01.748Z,45.32
2018-11-26T07:29:01.793Z,45.32
2018-11-26T07:30:01.838Z,45.41
2018-11-26T07:31:02.029Z,45.35
2018-11-26T07:32:02.140Z,45.38
2018-11-26T07:33:02.004Z,45.4
2018-11-26T07:34:01.731Z,45.38
2018-11-26T07:35:01.582Z,45.42
2018-11-26T07:36:02.057Z,45.42
2018-11-26T07:37:02.513Z,45.37
2018-11-26T07:38:02.255Z,45.39
2018-11-26T07:39:01.734Z,45.46
2018-11-26T07:40:01.772Z,45.43
2018-11-26T07:41:02.238Z,45.47
2018-11-26T07:42:01.734Z,45.37
2018-11-26T07:43:02.253Z,45.42
2018-11-26T07:44:01.817Z,45.41
2018-11-26T07:45:01.714Z,45.33
2018-11-26T07:46:01.865Z,45.43
2018-11-26T07:47:01.754Z,45.35
2018-11-26T07:48:01.919Z,45.41
2018-11-26T07:49:01.727Z,45.32
2018-11-26T07:50:01.472Z,45.47
2018-11-26T07:51:02.828Z,45.41
2018-11-26T07:52:01.687Z,45.41
2018-11-26T07:53:01.680Z,45.38
2018-11-26T07:54:01.699Z,45.45
2018-11-26T07:55:01.805Z,45.38
2018-11-26T07:56:01.692Z,45.39
2018-11-26T07:57:01.799Z,45.39
2018-11-26T07:58:01.632Z,45.35
2018-11-26T07:59:01.643Z,45.44
2018-11-26T08:00:01.688Z,45.37
2018-11-26T08:01:01.812Z,45.4
2018-11-26T08:02:01.597Z,45.46
2018-11-26T08:03:01.675Z,45.39
2018-11-26T08:04:02.190Z,45.5
2018-11-26T08:05:01.683Z,45.39
2018-11-26T08:06:08.703Z,45.42
2018-11-26T08:07:01.885Z,45.45
2018-11-26T08:08:01.661Z,45.42
2018-11-26T08:09:01.824Z,45.39
2018-11-26T08:10:01.599Z,45.5
2018-11-26T08:11:01.812Z,45.42
2018-11-26T08:12:01.621Z,45.35
2018-11-26T08:13:01.828Z,45.38
2018-11-26T08:14:01.659Z,45.36
2018-11-26T08:15:01.746Z,45.34
2018-11-26T08:16:01.637Z,45.37
2018-11-26T08:17:01.986Z,45.36
2018-11-26T08:18:02.070Z,45.46
2018-11-26T08:19:02.192Z,45.49
2018-11-26T08:20:01.745Z,45.37
2018-11-26T08:21:01.691Z,45.36
2018-11-26T08:22:02.043Z,45.35
2018-11-26T08:23:01.960Z,45.32
2018-11-26T08:24:01.563Z,45.44
2018-11-26T08:25:02.191Z,45.3
2018-11-26T08:26:01.660Z,45.35
2018-11-26T08:27:01.892Z,45.4
2018-11-26T08:28:01.912Z,45.44
2018-11-26T08:29:01.611Z,45.38
2018-11-26T08:30:01.980Z,45.36
2018-11-26T08:31:01.809Z,45.43
2018-11-26T08:32:01.973Z,45.41
2018-11-26T08:33:02.029Z,45.25
2018-11-26T08:34:02.071Z,45.38
2018-11-26T08:35:01.635Z,45.33
2018-11-26T08:36:01.741Z,45.44
2018-11-26T08:37:01.810Z,45.44
2018-11-26T08:38:01.813Z,45.43
2018-11-26T08:39:01.988Z,45.38
2018-11-26T08:40:02.136Z,45.36
2018-11-26T08:41:01.852Z,45.38
2018-11-26T08:42:01.685Z,45.32
2018-11-26T08:43:02.159Z,45.33
2018-11-26T08:44:09.438Z,45.3
2018-11-26T08:45:01.699Z,45.4
2018-11-26T08:46:02.447Z,45.27
2018-11-26T08:47:01.629Z,45.27
2018-11-26T08:48:01.833Z,45.28
2018-11-26T08:49:01.830Z,45.31
2018-11-26T08:50:01.912Z,45.25
2018-11-26T08:51:01.870Z,45.39
2018-11-26T08:52:01.751Z,45.33
2018-11-26T08:53:01.657Z,45.43
2018-11-26T08:54:02.201Z,45.46
2018-11-26T08:55:02.863Z,45.31
2018-11-26T08:56:01.928Z,45.43
2018-11-26T08:57:02.625Z,45.42
2018-11-26T08:58:01.691Z,45.31
2018-11-26T08:59:01.805Z,45.29
2018-11-26T09:00:02.081Z,45.38
2018-11-26T09:01:01.815Z,45.24
2018-11-26T09:02:02.189Z,45.33
2018-11-26T09:03:01.748Z,45.38
2018-11-26T09:04:01.775Z,45.35
2018-11-26T09:05:01.894Z,45.27
2018-11-26T09:06:01.804Z,45.32
2018-11-26T09:07:01.966Z,45.38
2018-11-26T09:08:02.009Z,45.33
2018-11-26T09:09:01.698Z,45.33
2018-11-26T09:10:02.021Z,45.37
2018-11-26T09:11:01.624Z,45.26
2018-11-26T09:12:02.035Z,45.33
2018-11-26T09:13:02.114Z,45.37
2018-11-26T09:14:01.737Z,45.44
2018-11-26T09:15:01.733Z,45.3
2018-11-26T09:16:01.613Z,45.3
2018-11-26T09:17:02.170Z,45.37
2018-11-26T09:18:01.713Z,45.39
2018-11-26T09:19:02.198Z,45.28
2018-11-26T09:20:01.884Z,45.42
2018-11-26T09:21:02.812Z,45.39
2018-11-26T09:22:01.765Z,45.25
2018-11-26T09:23:01.665Z,45.22
2018-11-26T09:24:01.728Z,45.26
2018-11-26T09:25:01.618Z,45.36
2018-11-26T09:26:01.689Z,45.2
2018-11-26T09:27:01.629Z,45.42
2018-11-26T09:28:01.839Z,45.29
2018-11-26T09:29:01.813Z,45.19
2018-11-26T09:30:01.671Z,45.35
2018-11-26T09:31:01.805Z,45.35
2018-11-26T09:32:01.599Z,45.33
2018-11-26T09:33:01.699Z,45.36
2018-11-26T09:34:02.002Z,45.36
2018-11-26T09:35:01.758Z,45.24
2018-11-26T09:36:01.597Z,45.37
2018-11-26T09:37:01.745Z,45.29
2018-11-26T09:38:01.733Z,45.25
2018-11-26T09:39:01.670Z,45.35
2018-11-26T09:40:01.803Z,45.24
2018-11-26T09:41:01.642Z,45.32
2018-11-26T09:42:01.732Z,45.28
2018-11-26T09:43:01.726Z,45.27
2018-11-26T09:44:01.767Z,45.26
2018-11-26T09:45:01.561Z,45.28
2018-11-26T09:46:01.745Z,45.35
2018-11-26T09:47:01.744Z,45.32
2018-11-26T09:48:01.577Z,45.24
2018-11-26T09:49:01.664Z,45.25
2018-11-26T09:50:01.795Z,45.25
2018-11-26T09:51:01.734Z,45.26
2018-11-26T09:52:01.944Z,45.36
2018-11-26T09:53:01.609Z,45.35
2018-11-26T09:54:02.573Z,45.2
2018-11-26T09:55:02.135Z,45.2
2018-11-26T09:56:01.659Z,45.28
2018-11-26T09:57:02.239Z,45.26
2018-11-26T09:58:01.729Z,45.33
2018-11-26T09:59:01.793Z,45.27
2018-11-26T10:00:01.640Z,45.31
2018-11-26T10:01:01.616Z,45.28
2018-11-26T10:02:01.874Z,45.25
2018-11-26T10:03:02.109Z,45.28
2018-11-26T10:04:01.884Z,45.26
2018-11-26T10:05:01.591Z,45.27
2018-11-26T10:06:02.069Z,45.29
2018-11-26T10:07:01.558Z,45.2
2018-11-26T10:08:01.667Z,45.17
2018-11-26T10:09:01.811Z,45.21
2018-11-26T10:10:01.736Z,45.14
2018-11-26T10:11:01.826Z,45.22
2018-11-26T10:12:01.607Z,45.22
2018-11-26T10:13:02.378Z,45.27
2018-11-26T10:14:01.564Z,45.27
2018-11-26T10:15:01.613Z,45.29
2018-11-26T10:16:01.771Z,45.18
2018-11-26T10:17:01.740Z,45.23
2018-11-26T10:18:01.811Z,45.28
2018-11-26T10:19:01.560Z,45.21
2018-11-26T10:20:01.973Z,45.21
2018-11-26T10:21:01.666Z,45.24
2018-11-26T10:22:01.700Z,45.15
2018-11-26T10:23:01.865Z,45.18
2018-11-26T10:24:02.019Z,45.16
2018-11-26T10:25:06.175Z,45.2
2018-11-26T10:26:01.846Z,45.23
2018-11-26T10:27:01.745Z,45.14
2018-11-26T10:28:01.642Z,45.28
2018-11-26T10:29:01.992Z,45.28
2018-11-26T10:30:01.896Z,45.17
2018-11-26T10:31:01.675Z,45.18
2018-11-26T10:32:01.674Z,45.23
2018-11-26T10:33:01.579Z,45.18
2018-11-26T10:34:01.844Z,45.23
2018-11-26T10:35:01.916Z,45.19
2018-11-26T10:36:01.772Z,45.13
2018-11-26T10:37:01.839Z,45.18
2018-11-26T10:38:01.816Z,45.15
2018-11-26T10:39:02.062Z,45.19
2018-11-26T10:40:02.229Z,45.21
2018-11-26T10:41:02.164Z,45.13
2018-11-26T10:42:01.640Z,45.19
2018-11-26T10:43:02.055Z,45.19
2018-11-26T10:44:01.944Z,45.22
2018-11-26T10:45:02.150Z,45.21
2018-11-26T10:46:01.760Z,45.13
2018-11-26T10:47:01.748Z,45.22
2018-11-26T10:48:02.727Z,45.2
2018-11-26T10:49:02.563Z,45.18
2018-11-26T10:50:02.173Z,45.24
2018-11-26T10:51:01.843Z,45.28
2018-11-26T10:52:02.141Z,45.29
2018-11-26T10:53:01.751Z,45.24
2018-11-26T10:54:01.684Z,45.29
2018-11-26T10:55:01.620Z,45.23
2018-11-26T10:56:01.808Z,45.25
2018-11-26T10:57:01.697Z,45.16
2018-11-26T10:58:01.705Z,45.17
2018-11-26T10:59:01.763Z,45.19
2018-11-26T11:00:02.025Z,45.16
2018-11-26T11:01:01.687Z,45.19
2018-11-26T11:02:01.830Z,45.26
2018-11-26T11:03:01.626Z,45.27
2018-11-26T11:04:01.774Z,45.18
2018-11-26T11:05:01.680Z,45.18
2018-11-26T11:06:02.333Z,45.21
2018-11-26T11:07:01.609Z,45.13
2018-11-26T11:08:01.638Z,45.18
2018-11-26T11:09:01.604Z,45.21
2018-11-26T11:10:01.765Z,45.22
2018-11-26T11:11:01.724Z,45.18
2018-11-26T11:12:01.512Z,45.12
2018-11-26T11:13:01.827Z,45.15
2018-11-26T11:14:01.692Z,45.25
2018-11-26T11:15:01.923Z,45.15
2018-11-26T11:16:01.505Z,45.22
2018-11-26T11:17:01.728Z,45.14
2018-11-26T11:18:01.796Z,45.18
2018-11-26T11:19:01.585Z,45.24
2018-11-26T11:20:01.802Z,45.14
2018-11-26T11:21:01.762Z,45.14
2018-11-26T11:22:01.807Z,45.14
2018-11-26T11:23:01.666Z,45.25
2018-11-26T11:24:02.026Z,45.25
2018-11-26T11:25:01.720Z,45.24
2018-11-26T11:26:01.701Z,45.17
2018-11-26T11:27:02.047Z,45.29
2018-11-26T11:28:01.603Z,45.22
2018-11-26T11:29:01.818Z,45.25
2018-11-26T11:30:01.519Z,45.14
2018-11-26T11:31:01.673Z,45.28
2018-11-26T11:32:01.664Z,45.17
2018-11-26T11:34:01.605Z,45.15
2018-11-26T11:35:01.796Z,45.17
2018-11-26T11:36:01.735Z,45.21
2018-11-26T11:37:01.712Z,45.28
2018-11-26T11:38:02.165Z,45.31
2018-11-26T11:39:01.657Z,45.23
2018-11-26T11:40:01.796Z,45.23
2018-11-26T11:41:01.684Z,45.32
2018-11-26T11:42:01.919Z,45.2
2018-11-26T11:43:02.086Z,45.22
2018-11-26T11:44:01.845Z,45.29
2018-11-26T11:45:01.956Z,45.4
2018-11-26T11:46:01.872Z,45.39
2018-11-26T11:47:01.833Z,45.31
2018-11-26T11:48:01.479Z,45.31
2018-11-26T11:49:01.935Z,45.32
2018-11-26T11:50:01.687Z,45.29
2018-11-26T11:51:01.746Z,45.29
2018-11-26T11:52:01.732Z,45.28
2018-11-26T11:53:01.574Z,45.26
2018-11-26T11:54:01.722Z,45.1
2018-11-26T11:55:02.140Z,45.16
2018-11-26T11:56:01.856Z,45.11
2018-11-26T11:57:01.603Z,45.12
2018-11-26T11:58:01.972Z,45.12
2018-11-26T11:59:01.865Z,45.22
2018-11-26T12:00:01.857Z,45.16
2018-11-26T12:01:02.014Z,45.22
2018-11-26T12:02:02.060Z,45.12
2018-11-26T12:03:03.106Z,45.13
2018-11-26T12:04:01.663Z,45.11
2018-11-26T12:05:02.315Z,45.17
2018-11-26T12:06:01.460Z,45.2
2018-11-26T12:07:01.499Z,45.22
2018-11-26T12:08:02.054Z,45.19
2018-11-26T12:09:02.292Z,45.15
2018-11-26T12:10:02.078Z,45.15
2018-11-26T12:11:02.223Z,45.17
2018-11-26T12:12:01.965Z,45.09
2018-11-26T12:13:01.894Z,45.13
2018-11-26T12:14:01.891Z,45.06
2018-11-26T12:15:01.690Z,45.12
2018-11-26T12:16:01.919Z,45.11
2018-11-26T12:17:01.894Z,45.13
2018-11-26T12:18:01.692Z,45.1
2018-11-26T12:19:01.525Z,45.07
2018-11-26T12:20:01.987Z,45.07
2018-11-26T12:21:01.802Z,45.04
2018-11-26T12:22:01.681Z,45.04
2018-11-26T12:23:01.971Z,45.19
2018-11-26T12:24:01.699Z,45.14
2018-11-26T12:25:01.982Z,45.12
2018-11-26T12:26:01.670Z,45.15
2018-11-26T12:27:01.604Z,45.12
2018-11-26T12:28:02.462Z,45.1
2018-11-26T12:29:01.703Z,45.21
2018-11-26T12:30:02.210Z,45.14
2018-11-26T12:31:01.784Z,45.07
2018-11-26T12:32:01.835Z,45.09
2018-11-26T12:33:01.621Z,45.07
2018-11-26T12:34:01.716Z,45.11
2018-11-26T12:35:01.640Z,45.14
2018-11-26T12:36:01.869Z,45.09
2018-11-26T12:37:01.593Z,45.08
2018-11-26T12:38:01.621Z,45.08
2018-11-26T12:39:01.813Z,45.12
2018-11-26T12:40:01.619Z,45.11
2018-11-26T12:41:01.772Z,45.11
2018-11-26T12:42:04.346Z,45.11
2018-11-26T12:43:01.606Z,45.09
2018-11-26T12:44:01.774Z,45.07
2018-11-26T12:45:01.631Z,45.14
2018-11-26T12:46:01.845Z,45.14
2018-11-26T12:47:01.981Z,45.08
2018-11-26T12:48:01.711Z,45.14
2018-11-26T12:49:01.662Z,45.08
2018-11-26T12:50:01.863Z,45.13
2018-11-26T12:51:01.695Z,45.13
2018-11-26T12:52:01.768Z,45.17
2018-11-26T12:53:01.648Z,45.08
2018-11-26T12:54:01.572Z,45.05
2018-11-26T12:55:01.724Z,45.12